sensor_id;sensor_type;location;lat;lon;timestamp;P1;durP1;ratioP1;P2;durP2;ratioP2
23952;SDS011;12163;49.316;6.092;2023-07-13T00:00:10;9.32;;;1.27;;
23952;SDS011;12163;49.316;6.092;2023-07-13T00:02:38;4.35;;;1.38;;
23952;SDS011;12163;49.316;6.092;2023-07-13T00:05:05;4.72;;;1.25;;
23952;SDS011;12163;49.316;6.092;2023-07-13T00:07:33;7.10;;;1.55;;
23952;SDS011;12163;49.316;6.092;2023-07-13T00:09:59;4.68;;;1.40;;
23952;SDS011;12163;49.316;6.092;2023-07-13T00:12:28;4.10;;;1.23;;
23952;SDS011;12163;49.316;6.092;2023-07-13T00:14:58;5.35;;;1.77;;
23952;SDS011;12163;49.316;6.092;2023-07-13T00:17:26;6.97;;;1.40;;
23952;SDS011;12163;49.316;6.092;2023-07-13T00:19:54;3.40;;;1.10;;
23952;SDS011;12163;49.316;6.092;2023-07-13T00:22:22;9.18;;;1.58;;
23952;SDS011;12163;49.316;6.092;2023-07-13T00:24:52;9.05;;;1.40;;
23952;SDS011;12163;49.316;6.092;2023-07-13T00:27:22;3.42;;;1.30;;
23952;SDS011;12163;49.316;6.092;2023-07-13T00:29:49;4.68;;;1.45;;
23952;SDS011;12163;49.316;6.092;2023-07-13T00:32:16;5.25;;;1.55;;
23952;SDS011;12163;49.316;6.092;2023-07-13T00:34:42;2.72;;;1.20;;
23952;SDS011;12163;49.316;6.092;2023-07-13T00:37:09;4.03;;;1.60;;
23952;SDS011;12163;49.316;6.092;2023-07-13T00:39:37;6.25;;;1.52;;
23952;SDS011;12163;49.316;6.092;2023-07-13T00:42:05;8.13;;;1.70;;
23952;SDS011;12163;49.316;6.092;2023-07-13T00:44:32;8.68;;;1.50;;
23952;SDS011;12163;49.316;6.092;2023-07-13T00:46:58;4.40;;;1.33;;
23952;SDS011;12163;49.316;6.092;2023-07-13T00:49:25;5.32;;;1.60;;
23952;SDS011;12163;49.316;6.092;2023-07-13T00:51:57;5.90;;;1.80;;
23952;SDS011;12163;49.316;6.092;2023-07-13T00:54:30;7.78;;;2.15;;
23952;SDS011;12163;49.316;6.092;2023-07-13T00:57:02;6.13;;;1.50;;
23952;SDS011;12163;49.316;6.092;2023-07-13T00:59:30;6.13;;;1.85;;
23952;SDS011;12163;49.316;6.092;2023-07-13T01:01:57;5.47;;;2.00;;
23952;SDS011;12163;49.316;6.092;2023-07-13T01:04:25;5.47;;;1.48;;
23952;SDS011;12163;49.316;6.092;2023-07-13T01:06:52;4.88;;;1.65;;
23952;SDS011;12163;49.316;6.092;2023-07-13T01:09:19;6.45;;;1.73;;
23952;SDS011;12163;49.316;6.092;2023-07-13T01:11:47;3.10;;;1.70;;
23952;SDS011;12163;49.316;6.092;2023-07-13T01:14:15;5.72;;;1.83;;
23952;SDS011;12163;49.316;6.092;2023-07-13T01:16:44;6.20;;;1.63;;
23952;SDS011;12163;49.316;6.092;2023-07-13T01:22:08;5.05;;;1.65;;
23952;SDS011;12163;49.316;6.092;2023-07-13T01:24:38;4.72;;;2.10;;
23952;SDS011;12163;49.316;6.092;2023-07-13T01:27:07;6.32;;;1.90;;
23952;SDS011;12163;49.316;6.092;2023-07-13T01:29:35;5.38;;;1.88;;
23952;SDS011;12163;49.316;6.092;2023-07-13T01:32:15;6.60;;;1.83;;
23952;SDS011;12163;49.316;6.092;2023-07-13T01:34:53;8.83;;;2.33;;
23952;SDS011;12163;49.316;6.092;2023-07-13T01:37:21;5.63;;;2.40;;
23952;SDS011;12163;49.316;6.092;2023-07-13T01:39:49;4.65;;;2.13;;
23952;SDS011;12163;49.316;6.092;2023-07-13T01:42:15;6.10;;;1.67;;
23952;SDS011;12163;49.316;6.092;2023-07-13T01:44:42;4.68;;;1.60;;
23952;SDS011;12163;49.316;6.092;2023-07-13T01:47:09;5.95;;;2.08;;
23952;SDS011;12163;49.316;6.092;2023-07-13T01:49:37;5.25;;;1.63;;
23952;SDS011;12163;49.316;6.092;2023-07-13T01:52:04;8.35;;;1.70;;
23952;SDS011;12163;49.316;6.092;2023-07-13T01:54:31;6.45;;;1.90;;
23952;SDS011;12163;49.316;6.092;2023-07-13T01:57:00;7.30;;;1.95;;
23952;SDS011;12163;49.316;6.092;2023-07-13T01:59:26;6.00;;;1.70;;
23952;SDS011;12163;49.316;6.092;2023-07-13T02:01:53;4.68;;;1.75;;
23952;SDS011;12163;49.316;6.092;2023-07-13T02:04:20;3.88;;;1.50;;
23952;SDS011;12163;49.316;6.092;2023-07-13T02:06:47;5.40;;;1.73;;
23952;SDS011;12163;49.316;6.092;2023-07-13T02:09:13;11.43;;;1.90;;
23952;SDS011;12163;49.316;6.092;2023-07-13T02:11:40;4.00;;;1.73;;
23952;SDS011;12163;49.316;6.092;2023-07-13T02:14:07;4.20;;;1.70;;
23952;SDS011;12163;49.316;6.092;2023-07-13T02:16:33;6.22;;;1.58;;
23952;SDS011;12163;49.316;6.092;2023-07-13T02:19:00;5.65;;;1.65;;
23952;SDS011;12163;49.316;6.092;2023-07-13T02:21:27;9.02;;;1.60;;
23952;SDS011;12163;49.316;6.092;2023-07-13T02:23:53;4.32;;;1.60;;
23952;SDS011;12163;49.316;6.092;2023-07-13T02:26:21;6.40;;;1.52;;
23952;SDS011;12163;49.316;6.092;2023-07-13T02:28:47;5.13;;;1.55;;
23952;SDS011;12163;49.316;6.092;2023-07-13T02:31:15;6.18;;;1.45;;
23952;SDS011;12163;49.316;6.092;2023-07-13T02:33:42;5.30;;;1.92;;
23952;SDS011;12163;49.316;6.092;2023-07-13T02:36:09;6.38;;;1.60;;
23952;SDS011;12163;49.316;6.092;2023-07-13T02:38:37;4.15;;;1.55;;
23952;SDS011;12163;49.316;6.092;2023-07-13T02:41:05;6.47;;;1.90;;
23952;SDS011;12163;49.316;6.092;2023-07-13T02:43:33;7.85;;;1.73;;
23952;SDS011;12163;49.316;6.092;2023-07-13T02:46:00;4.95;;;1.70;;
23952;SDS011;12163;49.316;6.092;2023-07-13T02:48:34;3.70;;;1.42;;
23952;SDS011;12163;49.316;6.092;2023-07-13T02:51:01;5.35;;;1.25;;
23952;SDS011;12163;49.316;6.092;2023-07-13T02:53:27;12.05;;;2.08;;
23952;SDS011;12163;49.316;6.092;2023-07-13T02:55:54;10.23;;;1.60;;
23952;SDS011;12163;49.316;6.092;2023-07-13T02:58:21;5.15;;;1.38;;
23952;SDS011;12163;49.316;6.092;2023-07-13T03:00:47;5.00;;;1.27;;
23952;SDS011;12163;49.316;6.092;2023-07-13T03:03:16;4.22;;;1.30;;
23952;SDS011;12163;49.316;6.092;2023-07-13T03:05:44;8.60;;;1.55;;
23952;SDS011;12163;49.316;6.092;2023-07-13T03:08:16;5.63;;;1.27;;
23952;SDS011;12163;49.316;6.092;2023-07-13T03:10:44;5.15;;;1.40;;
23952;SDS011;12163;49.316;6.092;2023-07-13T03:13:11;7.03;;;1.70;;
23952;SDS011;12163;49.316;6.092;2023-07-13T03:15:38;5.38;;;1.50;;
23952;SDS011;12163;49.316;6.092;2023-07-13T03:18:04;6.47;;;1.70;;
23952;SDS011;12163;49.316;6.092;2023-07-13T03:20:34;3.92;;;1.45;;
23952;SDS011;12163;49.316;6.092;2023-07-13T03:23:00;7.30;;;1.67;;
23952;SDS011;12163;49.316;6.092;2023-07-13T03:25:27;6.25;;;1.40;;
23952;SDS011;12163;49.316;6.092;2023-07-13T03:27:54;5.72;;;1.70;;
23952;SDS011;12163;49.316;6.092;2023-07-13T03:30:20;12.45;;;2.10;;
23952;SDS011;12163;49.316;6.092;2023-07-13T03:32:47;3.33;;;1.38;;
23952;SDS011;12163;49.316;6.092;2023-07-13T03:35:14;7.85;;;2.03;;
23952;SDS011;12163;49.316;6.092;2023-07-13T03:37:40;7.15;;;1.60;;
23952;SDS011;12163;49.316;6.092;2023-07-13T03:40:09;5.68;;;1.50;;
23952;SDS011;12163;49.316;6.092;2023-07-13T03:42:36;5.43;;;1.60;;
23952;SDS011;12163;49.316;6.092;2023-07-13T03:45:03;6.15;;;1.63;;
23952;SDS011;12163;49.316;6.092;2023-07-13T03:47:30;12.05;;;1.90;;
23952;SDS011;12163;49.316;6.092;2023-07-13T03:49:57;8.10;;;1.73;;
23952;SDS011;12163;49.316;6.092;2023-07-13T03:52:23;9.05;;;1.75;;
23952;SDS011;12163;49.316;6.092;2023-07-13T03:54:50;5.75;;;1.75;;
23952;SDS011;12163;49.316;6.092;2023-07-13T03:57:17;9.38;;;1.90;;
23952;SDS011;12163;49.316;6.092;2023-07-13T03:59:45;7.50;;;1.70;;
23952;SDS011;12163;49.316;6.092;2023-07-13T04:02:11;5.82;;;1.75;;
23952;SDS011;12163;49.316;6.092;2023-07-13T04:04:38;9.10;;;1.80;;
23952;SDS011;12163;49.316;6.092;2023-07-13T04:07:07;7.53;;;2.17;;
23952;SDS011;12163;49.316;6.092;2023-07-13T04:09:34;9.25;;;2.22;;
23952;SDS011;12163;49.316;6.092;2023-07-13T04:12:02;5.10;;;1.70;;
23952;SDS011;12163;49.316;6.092;2023-07-13T04:14:28;5.40;;;1.70;;
23952;SDS011;12163;49.316;6.092;2023-07-13T04:16:55;6.95;;;1.67;;
23952;SDS011;12163;49.316;6.092;2023-07-13T04:19:22;7.10;;;1.77;;
23952;SDS011;12163;49.316;6.092;2023-07-13T04:21:49;6.97;;;2.10;;
23952;SDS011;12163;49.316;6.092;2023-07-13T04:24:16;9.15;;;2.08;;
23952;SDS011;12163;49.316;6.092;2023-07-13T04:26:42;19.38;;;2.10;;
23952;SDS011;12163;49.316;6.092;2023-07-13T04:29:10;4.72;;;1.60;;
23952;SDS011;12163;49.316;6.092;2023-07-13T04:31:36;5.90;;;1.83;;
23952;SDS011;12163;49.316;6.092;2023-07-13T04:34:03;6.05;;;1.83;;
23952;SDS011;12163;49.316;6.092;2023-07-13T04:36:30;7.72;;;1.80;;
23952;SDS011;12163;49.316;6.092;2023-07-13T04:38:56;4.65;;;1.58;;
23952;SDS011;12163;49.316;6.092;2023-07-13T04:41:23;8.25;;;1.92;;
23952;SDS011;12163;49.316;6.092;2023-07-13T04:43:50;7.57;;;1.70;;
23952;SDS011;12163;49.316;6.092;2023-07-13T04:46:17;6.88;;;1.92;;
23952;SDS011;12163;49.316;6.092;2023-07-13T04:48:45;6.57;;;2.00;;
23952;SDS011;12163;49.316;6.092;2023-07-13T04:51:12;4.80;;;1.80;;
23952;SDS011;12163;49.316;6.092;2023-07-13T04:53:39;6.30;;;2.10;;
23952;SDS011;12163;49.316;6.092;2023-07-13T04:56:06;4.97;;;2.13;;
23952;SDS011;12163;49.316;6.092;2023-07-13T04:58:33;9.38;;;1.65;;
23952;SDS011;12163;49.316;6.092;2023-07-13T05:01:00;10.88;;;2.22;;
23952;SDS011;12163;49.316;6.092;2023-07-13T05:03:28;10.65;;;1.80;;
23952;SDS011;12163;49.316;6.092;2023-07-13T05:05:59;5.15;;;1.90;;
23952;SDS011;12163;49.316;6.092;2023-07-13T05:08:27;7.70;;;1.92;;
23952;SDS011;12163;49.316;6.092;2023-07-13T05:10:54;10.70;;;2.55;;
23952;SDS011;12163;49.316;6.092;2023-07-13T05:13:21;5.90;;;1.90;;
23952;SDS011;12163;49.316;6.092;2023-07-13T05:15:55;4.57;;;1.75;;
23952;SDS011;12163;49.316;6.092;2023-07-13T05:18:26;8.05;;;1.70;;
23952;SDS011;12163;49.316;6.092;2023-07-13T05:20:56;6.43;;;2.17;;
23952;SDS011;12163;49.316;6.092;2023-07-13T05:23:26;6.93;;;1.67;;
23952;SDS011;12163;49.316;6.092;2023-07-13T05:25:53;9.27;;;2.03;;
23952;SDS011;12163;49.316;6.092;2023-07-13T05:28:20;5.13;;;1.73;;
23952;SDS011;12163;49.316;6.092;2023-07-13T05:30:47;5.20;;;1.50;;
23952;SDS011;12163;49.316;6.092;2023-07-13T05:33:15;4.25;;;1.85;;
23952;SDS011;12163;49.316;6.092;2023-07-13T05:35:42;7.72;;;1.67;;
23952;SDS011;12163;49.316;6.092;2023-07-13T05:38:08;5.65;;;1.63;;
23952;SDS011;12163;49.316;6.092;2023-07-13T05:40:35;7.95;;;1.88;;
23952;SDS011;12163;49.316;6.092;2023-07-13T05:43:02;6.43;;;1.80;;
23952;SDS011;12163;49.316;6.092;2023-07-13T05:45:29;7.07;;;2.00;;
23952;SDS011;12163;49.316;6.092;2023-07-13T05:47:55;9.65;;;2.35;;
23952;SDS011;12163;49.316;6.092;2023-07-13T05:50:22;13.02;;;2.08;;
23952;SDS011;12163;49.316;6.092;2023-07-13T05:52:49;10.55;;;2.03;;
23952;SDS011;12163;49.316;6.092;2023-07-13T05:55:15;9.25;;;2.13;;
23952;SDS011;12163;49.316;6.092;2023-07-13T05:57:42;6.18;;;1.67;;
23952;SDS011;12163;49.316;6.092;2023-07-13T06:00:09;6.38;;;1.98;;
23952;SDS011;12163;49.316;6.092;2023-07-13T06:02:36;6.68;;;2.00;;
23952;SDS011;12163;49.316;6.092;2023-07-13T06:05:03;10.48;;;2.40;;
23952;SDS011;12163;49.316;6.092;2023-07-13T06:07:29;5.38;;;1.70;;
23952;SDS011;12163;49.316;6.092;2023-07-13T06:09:56;6.15;;;1.65;;
23952;SDS011;12163;49.316;6.092;2023-07-13T06:12:23;7.75;;;1.60;;
23952;SDS011;12163;49.316;6.092;2023-07-13T06:14:49;6.45;;;1.77;;
23952;SDS011;12163;49.316;6.092;2023-07-13T06:17:16;5.43;;;1.55;;
23952;SDS011;12163;49.316;6.092;2023-07-13T06:19:43;4.65;;;1.38;;
23952;SDS011;12163;49.316;6.092;2023-07-13T06:22:10;6.10;;;1.52;;
23952;SDS011;12163;49.316;6.092;2023-07-13T06:24:37;4.22;;;1.23;;
23952;SDS011;12163;49.316;6.092;2023-07-13T06:27:03;5.28;;;1.60;;
23952;SDS011;12163;49.316;6.092;2023-07-13T06:29:30;6.50;;;1.55;;
23952;SDS011;12163;49.316;6.092;2023-07-13T06:31:57;4.35;;;1.40;;
23952;SDS011;12163;49.316;6.092;2023-07-13T06:34:24;9.60;;;1.52;;
23952;SDS011;12163;49.316;6.092;2023-07-13T06:36:51;2.67;;;1.10;;
23952;SDS011;12163;49.316;6.092;2023-07-13T06:39:17;3.72;;;1.20;;
23952;SDS011;12163;49.316;6.092;2023-07-13T06:41:44;5.80;;;1.30;;
23952;SDS011;12163;49.316;6.092;2023-07-13T06:44:10;5.22;;;1.30;;
23952;SDS011;12163;49.316;6.092;2023-07-13T06:46:37;4.43;;;1.73;;
23952;SDS011;12163;49.316;6.092;2023-07-13T06:49:04;4.40;;;1.30;;
23952;SDS011;12163;49.316;6.092;2023-07-13T06:51:30;5.05;;;1.60;;
23952;SDS011;12163;49.316;6.092;2023-07-13T06:53:57;5.53;;;1.55;;
23952;SDS011;12163;49.316;6.092;2023-07-13T06:56:24;4.07;;;1.42;;
23952;SDS011;12163;49.316;6.092;2023-07-13T06:58:50;6.72;;;2.03;;
23952;SDS011;12163;49.316;6.092;2023-07-13T07:01:17;5.13;;;1.75;;
23952;SDS011;12163;49.316;6.092;2023-07-13T07:03:44;7.95;;;2.20;;
23952;SDS011;12163;49.316;6.092;2023-07-13T07:06:12;5.22;;;2.15;;
23952;SDS011;12163;49.316;6.092;2023-07-13T07:08:47;7.38;;;2.85;;
23952;SDS011;12163;49.316;6.092;2023-07-13T07:11:17;7.97;;;3.13;;
23952;SDS011;12163;49.316;6.092;2023-07-13T07:13:45;7.33;;;2.57;;
23952;SDS011;12163;49.316;6.092;2023-07-13T07:16:12;5.53;;;2.42;;
23952;SDS011;12163;49.316;6.092;2023-07-13T07:18:39;10.93;;;2.60;;
23952;SDS011;12163;49.316;6.092;2023-07-13T07:21:05;7.05;;;2.55;;
23952;SDS011;12163;49.316;6.092;2023-07-13T07:23:32;10.85;;;2.60;;
23952;SDS011;12163;49.316;6.092;2023-07-13T07:25:59;7.10;;;1.95;;
23952;SDS011;12163;49.316;6.092;2023-07-13T07:28:25;4.93;;;1.42;;
23952;SDS011;12163;49.316;6.092;2023-07-13T07:31:08;2.90;;;1.13;;
23952;SDS011;12163;49.316;6.092;2023-07-13T07:33:38;6.30;;;1.48;;
23952;SDS011;12163;49.316;6.092;2023-07-13T07:36:05;5.18;;;1.40;;
23952;SDS011;12163;49.316;6.092;2023-07-13T07:38:34;2.65;;;1.20;;
23952;SDS011;12163;49.316;6.092;2023-07-13T07:41:04;5.82;;;1.20;;
23952;SDS011;12163;49.316;6.092;2023-07-13T07:43:34;15.32;;;2.03;;
23952;SDS011;12163;49.316;6.092;2023-07-13T07:46:01;9.00;;;1.50;;
23952;SDS011;12163;49.316;6.092;2023-07-13T07:48:29;5.70;;;1.58;;
23952;SDS011;12163;49.316;6.092;2023-07-13T07:50:56;6.75;;;1.73;;
23952;SDS011;12163;49.316;6.092;2023-07-13T07:53:23;4.38;;;1.52;;
23952;SDS011;12163;49.316;6.092;2023-07-13T07:55:50;7.85;;;1.85;;
23952;SDS011;12163;49.316;6.092;2023-07-13T07:58:20;5.03;;;1.30;;
23952;SDS011;12163;49.316;6.092;2023-07-13T08:00:50;4.65;;;1.20;;
23952;SDS011;12163;49.316;6.092;2023-07-13T08:03:19;6.53;;;1.17;;
23952;SDS011;12163;49.316;6.092;2023-07-13T08:05:52;3.95;;;1.38;;
23952;SDS011;12163;49.316;6.092;2023-07-13T08:08:39;7.57;;;1.85;;
23952;SDS011;12163;49.316;6.092;2023-07-13T08:11:06;5.43;;;1.38;;
23952;SDS011;12163;49.316;6.092;2023-07-13T08:16:04;4.38;;;1.08;;
23952;SDS011;12163;49.316;6.092;2023-07-13T08:18:32;8.60;;;1.48;;
23952;SDS011;12163;49.316;6.092;2023-07-13T08:21:02;5.95;;;1.40;;
23952;SDS011;12163;49.316;6.092;2023-07-13T08:23:33;3.72;;;1.10;;
23952;SDS011;12163;49.316;6.092;2023-07-13T08:26:01;3.97;;;1.30;;
23952;SDS011;12163;49.316;6.092;2023-07-13T08:28:28;7.85;;;1.38;;
23952;SDS011;12163;49.316;6.092;2023-07-13T08:30:55;9.85;;;1.58;;
23952;SDS011;12163;49.316;6.092;2023-07-13T08:33:26;4.65;;;1.40;;
23952;SDS011;12163;49.316;6.092;2023-07-13T08:35:53;6.13;;;1.55;;
23952;SDS011;12163;49.316;6.092;2023-07-13T08:38:20;5.00;;;1.50;;
23952;SDS011;12163;49.316;6.092;2023-07-13T08:40:51;3.10;;;1.10;;
23952;SDS011;12163;49.316;6.092;2023-07-13T08:43:22;6.05;;;1.52;;
23952;SDS011;12163;49.316;6.092;2023-07-13T08:45:54;5.85;;;1.60;;
23952;SDS011;12163;49.316;6.092;2023-07-13T08:48:27;5.45;;;1.60;;
23952;SDS011;12163;49.316;6.092;2023-07-13T08:53:35;3.92;;;1.30;;
23952;SDS011;12163;49.316;6.092;2023-07-13T08:56:04;7.82;;;1.48;;
23952;SDS011;12163;49.316;6.092;2023-07-13T08:58:41;7.97;;;1.50;;
23952;SDS011;12163;49.316;6.092;2023-07-13T09:01:20;4.35;;;1.40;;
23952;SDS011;12163;49.316;6.092;2023-07-13T09:04:00;6.18;;;1.20;;
23952;SDS011;12163;49.316;6.092;2023-07-13T09:12:11;6.43;;;1.30;;
23952;SDS011;12163;49.316;6.092;2023-07-13T09:14:45;8.23;;;1.52;;
23952;SDS011;12163;49.316;6.092;2023-07-13T09:17:19;8.10;;;1.35;;
23952;SDS011;12163;49.316;6.092;2023-07-13T09:19:53;6.00;;;1.60;;
23952;SDS011;12163;49.316;6.092;2023-07-13T09:22:27;3.95;;;1.38;;
23952;SDS011;12163;49.316;6.092;2023-07-13T09:25:05;4.35;;;1.10;;
23952;SDS011;12163;49.316;6.092;2023-07-13T09:27:47;4.10;;;1.13;;
23952;SDS011;12163;49.316;6.092;2023-07-13T09:32:41;2.75;;;1.13;;
23952;SDS011;12163;49.316;6.092;2023-07-13T09:35:12;3.85;;;1.30;;
23952;SDS011;12163;49.316;6.092;2023-07-13T09:37:43;9.13;;;1.83;;
23952;SDS011;12163;49.316;6.092;2023-07-13T09:40:14;8.30;;;1.60;;
23952;SDS011;12163;49.316;6.092;2023-07-13T09:42:49;6.47;;;1.50;;
23952;SDS011;12163;49.316;6.092;2023-07-13T09:45:17;4.72;;;1.50;;
23952;SDS011;12163;49.316;6.092;2023-07-13T09:48:04;6.65;;;1.15;;
23952;SDS011;12163;49.316;6.092;2023-07-13T09:50:35;3.25;;;0.90;;
23952;SDS011;12163;49.316;6.092;2023-07-13T09:53:02;3.50;;;1.05;;
23952;SDS011;12163;49.316;6.092;2023-07-13T09:55:36;6.60;;;1.30;;
23952;SDS011;12163;49.316;6.092;2023-07-13T09:58:09;5.85;;;1.50;;
23952;SDS011;12163;49.316;6.092;2023-07-13T10:00:38;3.90;;;1.15;;
23952;SDS011;12163;49.316;6.092;2023-07-13T10:03:20;9.07;;;1.45;;
23952;SDS011;12163;49.316;6.092;2023-07-13T10:05:49;8.07;;;1.52;;
23952;SDS011;12163;49.316;6.092;2023-07-13T10:08:23;6.47;;;1.58;;
23952;SDS011;12163;49.316;6.092;2023-07-13T10:10:57;5.80;;;1.55;;
23952;SDS011;12163;49.316;6.092;2023-07-13T10:13:28;6.97;;;1.98;;
23952;SDS011;12163;49.316;6.092;2023-07-13T10:16:16;6.38;;;1.50;;
23952;SDS011;12163;49.316;6.092;2023-07-13T10:18:55;5.07;;;1.48;;
23952;SDS011;12163;49.316;6.092;2023-07-13T10:21:27;4.55;;;1.30;;
23952;SDS011;12163;49.316;6.092;2023-07-13T10:24:21;9.55;;;1.30;;
23952;SDS011;12163;49.316;6.092;2023-07-13T10:32:42;8.43;;;1.33;;
23952;SDS011;12163;49.316;6.092;2023-07-13T10:35:11;5.28;;;1.58;;
23952;SDS011;12163;49.316;6.092;2023-07-13T10:38:01;6.35;;;1.52;;
23952;SDS011;12163;49.316;6.092;2023-07-13T10:40:35;6.45;;;1.23;;
23952;SDS011;12163;49.316;6.092;2023-07-13T10:43:13;5.30;;;1.60;;
23952;SDS011;12163;49.316;6.092;2023-07-13T10:45:49;3.80;;;1.27;;
23952;SDS011;12163;49.316;6.092;2023-07-13T10:48:17;6.15;;;1.38;;
23952;SDS011;12163;49.316;6.092;2023-07-13T10:50:46;6.13;;;1.50;;
23952;SDS011;12163;49.316;6.092;2023-07-13T10:53:20;2.63;;;1.25;;
23952;SDS011;12163;49.316;6.092;2023-07-13T10:55:58;6.55;;;1.35;;
23952;SDS011;12163;49.316;6.092;2023-07-13T10:58:36;5.47;;;1.40;;
23952;SDS011;12163;49.316;6.092;2023-07-13T11:01:15;8.23;;;1.42;;
23952;SDS011;12163;49.316;6.092;2023-07-13T11:03:55;4.13;;;1.30;;
23952;SDS011;12163;49.316;6.092;2023-07-13T11:08:56;6.30;;;1.65;;
23952;SDS011;12163;49.316;6.092;2023-07-13T11:11:32;5.30;;;1.20;;
23952;SDS011;12163;49.316;6.092;2023-07-13T11:14:03;8.73;;;1.50;;
23952;SDS011;12163;49.316;6.092;2023-07-13T11:16:50;7.63;;;1.33;;
23952;SDS011;12163;49.316;6.092;2023-07-13T11:27:25;5.23;;;1.13;;
23952;SDS011;12163;49.316;6.092;2023-07-13T11:30:13;3.70;;;1.15;;
23952;SDS011;12163;49.316;6.092;2023-07-13T11:33:01;3.72;;;1.15;;
23952;SDS011;12163;49.316;6.092;2023-07-13T11:38:18;5.50;;;1.42;;
23952;SDS011;12163;49.316;6.092;2023-07-13T11:40:48;4.60;;;1.58;;
23952;SDS011;12163;49.316;6.092;2023-07-13T11:43:22;4.18;;;1.38;;
23952;SDS011;12163;49.316;6.092;2023-07-13T11:45:52;3.80;;;1.10;;
23952;SDS011;12163;49.316;6.092;2023-07-13T11:48:20;4.50;;;1.30;;
23952;SDS011;12163;49.316;6.092;2023-07-13T11:51:02;2.22;;;1.10;;
23952;SDS011;12163;49.316;6.092;2023-07-13T11:53:38;4.05;;;1.10;;
23952;SDS011;12163;49.316;6.092;2023-07-13T11:56:07;3.65;;;1.23;;
23952;SDS011;12163;49.316;6.092;2023-07-13T11:58:34;5.38;;;1.17;;
23952;SDS011;12163;49.316;6.092;2023-07-13T12:01:01;7.22;;;1.33;;
23952;SDS011;12163;49.316;6.092;2023-07-13T12:03:32;4.03;;;1.00;;
23952;SDS011;12163;49.316;6.092;2023-07-13T12:06:04;2.67;;;1.10;;
23952;SDS011;12163;49.316;6.092;2023-07-13T12:08:47;3.83;;;1.17;;
23952;SDS011;12163;49.316;6.092;2023-07-13T12:11:15;3.42;;;0.93;;
23952;SDS011;12163;49.316;6.092;2023-07-13T12:13:43;2.83;;;1.00;;
23952;SDS011;12163;49.316;6.092;2023-07-13T12:16:15;2.85;;;1.20;;
23952;SDS011;12163;49.316;6.092;2023-07-13T12:18:53;4.28;;;1.05;;
23952;SDS011;12163;49.316;6.092;2023-07-13T12:21:22;4.60;;;1.20;;
23952;SDS011;12163;49.316;6.092;2023-07-13T12:23:57;4.03;;;1.20;;
23952;SDS011;12163;49.316;6.092;2023-07-13T12:26:24;4.68;;;1.25;;
23952;SDS011;12163;49.316;6.092;2023-07-13T12:28:53;2.75;;;1.10;;
23952;SDS011;12163;49.316;6.092;2023-07-13T12:34:14;5.13;;;1.20;;
23952;SDS011;12163;49.316;6.092;2023-07-13T12:36:52;5.05;;;1.10;;
23952;SDS011;12163;49.316;6.092;2023-07-13T12:40:03;5.15;;;1.30;;
23952;SDS011;12163;49.316;6.092;2023-07-13T12:44:44;3.90;;;1.00;;
23952;SDS011;12163;49.316;6.092;2023-07-13T12:47:12;5.05;;;1.27;;
23952;SDS011;12163;49.316;6.092;2023-07-13T12:49:54;10.68;;;1.45;;
23952;SDS011;12163;49.316;6.092;2023-07-13T12:52:28;3.55;;;1.00;;
23952;SDS011;12163;49.316;6.092;2023-07-13T12:54:58;3.92;;;1.33;;
23952;SDS011;12163;49.316;6.092;2023-07-13T12:57:37;3.30;;;1.08;;
23952;SDS011;12163;49.316;6.092;2023-07-13T13:00:06;6.35;;;1.20;;
23952;SDS011;12163;49.316;6.092;2023-07-13T13:02:52;5.45;;;1.27;;
23952;SDS011;12163;49.316;6.092;2023-07-13T13:05:42;3.13;;;0.93;;
23952;SDS011;12163;49.316;6.092;2023-07-13T13:08:10;3.70;;;1.00;;
23952;SDS011;12163;49.316;6.092;2023-07-13T13:10:37;4.28;;;1.30;;
23952;SDS011;12163;49.316;6.092;2023-07-13T13:13:04;5.93;;;1.42;;
23952;SDS011;12163;49.316;6.092;2023-07-13T13:15:31;10.18;;;1.70;;
23952;SDS011;12163;49.316;6.092;2023-07-13T13:17:59;9.43;;;1.38;;
23952;SDS011;12163;49.316;6.092;2023-07-13T13:20:26;6.70;;;1.15;;
23952;SDS011;12163;49.316;6.092;2023-07-13T13:22:53;7.07;;;1.25;;
23952;SDS011;12163;49.316;6.092;2023-07-13T13:25:21;4.10;;;1.38;;
23952;SDS011;12163;49.316;6.092;2023-07-13T13:27:49;3.95;;;1.30;;
23952;SDS011;12163;49.316;6.092;2023-07-13T13:30:16;3.65;;;1.27;;
23952;SDS011;12163;49.316;6.092;2023-07-13T13:32:44;5.80;;;1.20;;
23952;SDS011;12163;49.316;6.092;2023-07-13T13:35:17;5.13;;;1.20;;
23952;SDS011;12163;49.316;6.092;2023-07-13T13:37:46;5.05;;;1.05;;
23952;SDS011;12163;49.316;6.092;2023-07-13T13:40:18;3.75;;;1.17;;
23952;SDS011;12163;49.316;6.092;2023-07-13T13:42:47;2.50;;;1.00;;
23952;SDS011;12163;49.316;6.092;2023-07-13T13:45:14;3.72;;;1.25;;
23952;SDS011;12163;49.316;6.092;2023-07-13T13:47:44;5.80;;;1.25;;
23952;SDS011;12163;49.316;6.092;2023-07-13T13:50:11;8.75;;;1.52;;
23952;SDS011;12163;49.316;6.092;2023-07-13T13:52:41;3.42;;;1.20;;
23952;SDS011;12163;49.316;6.092;2023-07-13T13:55:19;6.68;;;1.30;;
23952;SDS011;12163;49.316;6.092;2023-07-13T13:57:47;3.67;;;1.38;;
23952;SDS011;12163;49.316;6.092;2023-07-13T14:00:15;9.02;;;1.20;;
23952;SDS011;12163;49.316;6.092;2023-07-13T14:02:47;5.32;;;1.20;;
23952;SDS011;12163;49.316;6.092;2023-07-13T14:05:21;4.28;;;1.13;;
23952;SDS011;12163;49.316;6.092;2023-07-13T14:07:49;6.50;;;1.40;;
23952;SDS011;12163;49.316;6.092;2023-07-13T14:10:17;4.07;;;1.40;;
23952;SDS011;12163;49.316;6.092;2023-07-13T14:12:45;7.53;;;1.30;;
23952;SDS011;12163;49.316;6.092;2023-07-13T14:17:48;5.40;;;1.75;;
23952;SDS011;12163;49.316;6.092;2023-07-13T14:20:20;6.03;;;1.20;;
23952;SDS011;12163;49.316;6.092;2023-07-13T14:22:48;7.35;;;1.42;;
23952;SDS011;12163;49.316;6.092;2023-07-13T14:25:16;5.13;;;1.23;;
23952;SDS011;12163;49.316;6.092;2023-07-13T14:27:45;4.82;;;1.30;;
23952;SDS011;12163;49.316;6.092;2023-07-13T14:30:15;5.85;;;1.30;;
23952;SDS011;12163;49.316;6.092;2023-07-13T14:32:43;10.95;;;1.23;;
23952;SDS011;12163;49.316;6.092;2023-07-13T14:35:13;6.47;;;1.48;;
23952;SDS011;12163;49.316;6.092;2023-07-13T14:37:41;6.50;;;1.50;;
23952;SDS011;12163;49.316;6.092;2023-07-13T14:40:16;6.30;;;1.48;;
23952;SDS011;12163;49.316;6.092;2023-07-13T14:42:45;7.28;;;1.40;;
23952;SDS011;12163;49.316;6.092;2023-07-13T14:45:17;8.13;;;1.85;;
23952;SDS011;12163;49.316;6.092;2023-07-13T14:47:45;8.65;;;1.23;;
23952;SDS011;12163;49.316;6.092;2023-07-13T14:50:17;5.15;;;1.52;;
23952;SDS011;12163;49.316;6.092;2023-07-13T14:52:47;4.68;;;1.40;;
23952;SDS011;12163;49.316;6.092;2023-07-13T14:55:17;5.55;;;1.40;;
23952;SDS011;12163;49.316;6.092;2023-07-13T14:57:45;6.90;;;1.87;;
23952;SDS011;12163;49.316;6.092;2023-07-13T15:00:16;4.13;;;1.27;;
23952;SDS011;12163;49.316;6.092;2023-07-13T15:02:46;5.57;;;1.55;;
23952;SDS011;12163;49.316;6.092;2023-07-13T15:05:17;3.38;;;1.40;;
23952;SDS011;12163;49.316;6.092;2023-07-13T15:07:45;5.40;;;1.42;;
23952;SDS011;12163;49.316;6.092;2023-07-13T15:10:16;9.52;;;1.50;;
23952;SDS011;12163;49.316;6.092;2023-07-13T15:12:51;5.85;;;1.60;;
23952;SDS011;12163;49.316;6.092;2023-07-13T15:15:19;5.85;;;1.30;;
23952;SDS011;12163;49.316;6.092;2023-07-13T15:17:47;4.45;;;1.20;;
23952;SDS011;12163;49.316;6.092;2023-07-13T15:22:49;4.80;;;1.48;;
23952;SDS011;12163;49.316;6.092;2023-07-13T15:25:17;4.50;;;1.38;;
23952;SDS011;12163;49.316;6.092;2023-07-13T15:27:45;3.38;;;1.13;;
23952;SDS011;12163;49.316;6.092;2023-07-13T15:30:13;4.38;;;1.30;;
23952;SDS011;12163;49.316;6.092;2023-07-13T15:32:42;4.80;;;1.63;;
23952;SDS011;12163;49.316;6.092;2023-07-13T15:35:20;6.40;;;1.33;;
23952;SDS011;12163;49.316;6.092;2023-07-13T15:37:48;5.78;;;1.40;;
23952;SDS011;12163;49.316;6.092;2023-07-13T15:40:16;5.80;;;1.38;;
23952;SDS011;12163;49.316;6.092;2023-07-13T15:42:44;3.83;;;1.30;;
23952;SDS011;12163;49.316;6.092;2023-07-13T15:45:16;6.43;;;1.27;;
23952;SDS011;12163;49.316;6.092;2023-07-13T15:47:50;3.78;;;1.27;;